Terminal Aerodrome Forecast
Issued by NWS

Home | Current Version | Previous Version | Text Only | Print | Product List | Glossary On
Versions: 1 2 3 4 5 6 7 8 9 10 11 12 13 14 15
000
FTUS42 KFFC 261730
TAFFTY
TAF
KFTY 261730Z 2618/2718 29012G22KT P6SM SCT035 SCT050
     FM270000 32010KT P6SM SCT080
     FM270600 35006KT P6SM SCT100
     FM271500 35010KT P6SM SCT045=

USA.gov is the U.S. government's official web portal to all federal, state and local government web resources and services.